sensor_id;sensor_type;location;lat;lon;timestamp;temperature;humidity
19044;DHT22;9654;52.302;8.120;2023-04-07T00:00:22;7.20;99.90
19044;DHT22;9654;52.302;8.120;2023-04-07T00:02:50;7.20;99.90
19044;DHT22;9654;52.302;8.120;2023-04-07T00:05:16;7.20;99.90
19044;DHT22;9654;52.302;8.120;2023-04-07T00:07:43;7.20;99.90
19044;DHT22;9654;52.302;8.120;2023-04-07T00:10:11;7.10;99.90
19044;DHT22;9654;52.302;8.120;2023-04-07T00:12:37;7.10;99.90
19044;DHT22;9654;52.302;8.120;2023-04-07T00:15:05;7.10;99.90
19044;DHT22;9654;52.302;8.120;2023-04-07T00:17:32;7.10;99.90
19044;DHT22;9654;52.302;8.120;2023-04-07T00:20:00;7.00;99.90
19044;DHT22;9654;52.302;8.120;2023-04-07T00:22:27;7.00;99.90
19044;DHT22;9654;52.302;8.120;2023-04-07T00:24:54;7.10;99.90
19044;DHT22;9654;52.302;8.120;2023-04-07T00:27:20;7.10;99.90
19044;DHT22;9654;52.302;8.120;2023-04-07T00:29:47;7.00;99.90
19044;DHT22;9654;52.302;8.120;2023-04-07T00:32:14;7.00;99.90
19044;DHT22;9654;52.302;8.120;2023-04-07T00:34:41;7.00;99.90
19044;DHT22;9654;52.302;8.120;2023-04-07T00:37:09;7.00;99.90
19044;DHT22;9654;52.302;8.120;2023-04-07T00:39:36;7.00;99.90
19044;DHT22;9654;52.302;8.120;2023-04-07T00:42:03;7.00;99.90
19044;DHT22;9654;52.302;8.120;2023-04-07T00:44:31;7.00;99.90
19044;DHT22;9654;52.302;8.120;2023-04-07T00:46:58;7.00;99.90
19044;DHT22;9654;52.302;8.120;2023-04-07T00:49:25;7.00;99.90
19044;DHT22;9654;52.302;8.120;2023-04-07T00:51:54;7.10;99.90
19044;DHT22;9654;52.302;8.120;2023-04-07T00:54:22;7.10;99.90
19044;DHT22;9654;52.302;8.120;2023-04-07T00:56:49;7.00;99.90
19044;DHT22;9654;52.302;8.120;2023-04-07T00:59:16;7.00;99.90
19044;DHT22;9654;52.302;8.120;2023-04-07T01:01:46;7.00;99.90
19044;DHT22;9654;52.302;8.120;2023-04-07T01:04:19;7.00;99.90
19044;DHT22;9654;52.302;8.120;2023-04-07T01:06:49;6.90;99.90
19044;DHT22;9654;52.302;8.120;2023-04-07T01:09:20;6.90;99.90
19044;DHT22;9654;52.302;8.120;2023-04-07T01:12:01;7.00;99.90
19044;DHT22;9654;52.302;8.120;2023-04-07T01:14:32;7.00;99.90
19044;DHT22;9654;52.302;8.120;2023-04-07T01:17:02;7.00;99.90
19044;DHT22;9654;52.302;8.120;2023-04-07T01:19:35;6.90;99.90
19044;DHT22;9654;52.302;8.120;2023-04-07T01:22:02;6.90;99.90
19044;DHT22;9654;52.302;8.120;2023-04-07T01:24:51;6.90;99.90
19044;DHT22;9654;52.302;8.120;2023-04-07T01:27:33;6.90;99.90
19044;DHT22;9654;52.302;8.120;2023-04-07T01:30:07;6.90;99.90
19044;DHT22;9654;52.302;8.120;2023-04-07T01:32:36;6.90;99.90
19044;DHT22;9654;52.302;8.120;2023-04-07T01:35:06;6.90;99.90
19044;DHT22;9654;52.302;8.120;2023-04-07T01:37:36;6.90;99.90
19044;DHT22;9654;52.302;8.120;2023-04-07T01:40:05;6.90;99.90
19044;DHT22;9654;52.302;8.120;2023-04-07T01:42:34;6.90;99.90
19044;DHT22;9654;52.302;8.120;2023-04-07T01:45:05;6.90;99.90
19044;DHT22;9654;52.302;8.120;2023-04-07T01:47:33;6.90;99.90
19044;DHT22;9654;52.302;8.120;2023-04-07T01:50:02;6.90;99.90
19044;DHT22;9654;52.302;8.120;2023-04-07T01:52:30;6.90;99.90
19044;DHT22;9654;52.302;8.120;2023-04-07T01:54:58;6.90;99.90
19044;DHT22;9654;52.302;8.120;2023-04-07T01:57:25;6.80;99.90
19044;DHT22;9654;52.302;8.120;2023-04-07T01:59:52;6.80;99.90
19044;DHT22;9654;52.302;8.120;2023-04-07T02:02:20;6.80;99.90
19044;DHT22;9654;52.302;8.120;2023-04-07T02:04:53;6.80;99.90
19044;DHT22;9654;52.302;8.120;2023-04-07T02:07:26;6.80;99.90
19044;DHT22;9654;52.302;8.120;2023-04-07T02:09:56;6.80;99.90
19044;DHT22;9654;52.302;8.120;2023-04-07T02:12:25;6.80;99.90
19044;DHT22;9654;52.302;8.120;2023-04-07T02:14:53;6.80;99.90
19044;DHT22;9654;52.302;8.120;2023-04-07T02:17:23;6.80;99.90
19044;DHT22;9654;52.302;8.120;2023-04-07T02:19:51;6.80;99.90
19044;DHT22;9654;52.302;8.120;2023-04-07T02:22:19;6.80;99.90
19044;DHT22;9654;52.302;8.120;2023-04-07T02:24:46;6.80;99.90
19044;DHT22;9654;52.302;8.120;2023-04-07T02:27:13;6.80;99.90
19044;DHT22;9654;52.302;8.120;2023-04-07T02:29:39;6.80;99.90
19044;DHT22;9654;52.302;8.120;2023-04-07T02:32:06;6.80;99.90
19044;DHT22;9654;52.302;8.120;2023-04-07T02:34:35;6.80;99.90
19044;DHT22;9654;52.302;8.120;2023-04-07T02:37:01;6.80;99.90
19044;DHT22;9654;52.302;8.120;2023-04-07T02:39:28;6.80;99.90
19044;DHT22;9654;52.302;8.120;2023-04-07T02:41:55;6.80;99.90
19044;DHT22;9654;52.302;8.120;2023-04-07T02:44:22;6.80;99.90
19044;DHT22;9654;52.302;8.120;2023-04-07T02:46:48;6.80;99.90
19044;DHT22;9654;52.302;8.120;2023-04-07T02:49:15;6.80;99.90
19044;DHT22;9654;52.302;8.120;2023-04-07T02:51:43;6.70;99.90
19044;DHT22;9654;52.302;8.120;2023-04-07T02:54:11;6.70;99.90
19044;DHT22;9654;52.302;8.120;2023-04-07T02:56:38;6.70;99.90
19044;DHT22;9654;52.302;8.120;2023-04-07T02:59:04;6.80;99.90
19044;DHT22;9654;52.302;8.120;2023-04-07T03:01:31;6.70;99.90
19044;DHT22;9654;52.302;8.120;2023-04-07T03:03:59;6.70;99.90
19044;DHT22;9654;52.302;8.120;2023-04-07T03:06:26;6.70;99.90
19044;DHT22;9654;52.302;8.120;2023-04-07T03:08:54;6.70;99.90
19044;DHT22;9654;52.302;8.120;2023-04-07T03:11:21;6.70;99.90
19044;DHT22;9654;52.302;8.120;2023-04-07T03:13:47;6.80;99.90
19044;DHT22;9654;52.302;8.120;2023-04-07T03:16:14;6.80;99.90
19044;DHT22;9654;52.302;8.120;2023-04-07T03:18:41;6.80;99.90
19044;DHT22;9654;52.302;8.120;2023-04-07T03:21:08;6.70;99.90
19044;DHT22;9654;52.302;8.120;2023-04-07T03:23:34;6.70;99.90
19044;DHT22;9654;52.302;8.120;2023-04-07T03:26:03;6.70;99.90
19044;DHT22;9654;52.302;8.120;2023-04-07T03:28:29;6.70;99.90
19044;DHT22;9654;52.302;8.120;2023-04-07T03:30:56;6.70;99.90
19044;DHT22;9654;52.302;8.120;2023-04-07T03:33:23;6.70;99.90
19044;DHT22;9654;52.302;8.120;2023-04-07T03:35:50;6.70;99.90
19044;DHT22;9654;52.302;8.120;2023-04-07T03:38:16;6.70;99.90
19044;DHT22;9654;52.302;8.120;2023-04-07T03:40:43;6.60;99.90
19044;DHT22;9654;52.302;8.120;2023-04-07T03:43:11;6.60;99.90
19044;DHT22;9654;52.302;8.120;2023-04-07T03:45:40;6.60;99.90
19044;DHT22;9654;52.302;8.120;2023-04-07T03:48:07;6.60;99.90
19044;DHT22;9654;52.302;8.120;2023-04-07T03:50:36;6.60;99.90
19044;DHT22;9654;52.302;8.120;2023-04-07T03:53:03;6.60;99.90
19044;DHT22;9654;52.302;8.120;2023-04-07T03:55:30;6.60;99.90
19044;DHT22;9654;52.302;8.120;2023-04-07T03:57:57;6.50;99.90
19044;DHT22;9654;52.302;8.120;2023-04-07T04:00:25;6.50;99.90
19044;DHT22;9654;52.302;8.120;2023-04-07T04:02:52;6.50;99.90
19044;DHT22;9654;52.302;8.120;2023-04-07T04:05:19;6.60;99.90
19044;DHT22;9654;52.302;8.120;2023-04-07T04:07:45;6.50;99.90
19044;DHT22;9654;52.302;8.120;2023-04-07T04:10:12;6.60;99.90
19044;DHT22;9654;52.302;8.120;2023-04-07T04:12:40;6.50;99.90
19044;DHT22;9654;52.302;8.120;2023-04-07T04:15:08;6.50;99.90
19044;DHT22;9654;52.302;8.120;2023-04-07T04:17:36;6.50;99.90
19044;DHT22;9654;52.302;8.120;2023-04-07T04:20:04;6.50;99.90
19044;DHT22;9654;52.302;8.120;2023-04-07T04:22:31;6.50;99.90
19044;DHT22;9654;52.302;8.120;2023-04-07T04:24:58;6.50;99.90
19044;DHT22;9654;52.302;8.120;2023-04-07T04:27:25;6.40;99.90
19044;DHT22;9654;52.302;8.120;2023-04-07T04:29:52;6.40;99.90
19044;DHT22;9654;52.302;8.120;2023-04-07T04:32:19;6.40;99.90
19044;DHT22;9654;52.302;8.120;2023-04-07T04:34:48;6.40;99.90
19044;DHT22;9654;52.302;8.120;2023-04-07T04:37:15;6.40;99.90
19044;DHT22;9654;52.302;8.120;2023-04-07T04:39:41;6.40;99.90
19044;DHT22;9654;52.302;8.120;2023-04-07T04:42:08;6.40;99.90
19044;DHT22;9654;52.302;8.120;2023-04-07T04:44:35;6.40;99.90
19044;DHT22;9654;52.302;8.120;2023-04-07T04:47:02;6.40;99.90
19044;DHT22;9654;52.302;8.120;2023-04-07T04:49:29;6.40;99.90
19044;DHT22;9654;52.302;8.120;2023-04-07T04:51:57;6.40;99.90
19044;DHT22;9654;52.302;8.120;2023-04-07T04:54:24;6.40;99.90
19044;DHT22;9654;52.302;8.120;2023-04-07T04:56:50;6.40;99.90
19044;DHT22;9654;52.302;8.120;2023-04-07T04:59:17;6.40;99.90
19044;DHT22;9654;52.302;8.120;2023-04-07T05:01:44;6.40;99.90
19044;DHT22;9654;52.302;8.120;2023-04-07T05:04:11;6.40;99.90
19044;DHT22;9654;52.302;8.120;2023-04-07T05:06:38;6.40;99.90
19044;DHT22;9654;52.302;8.120;2023-04-07T05:09:06;6.40;99.90
19044;DHT22;9654;52.302;8.120;2023-04-07T05:11:32;6.40;99.90
19044;DHT22;9654;52.302;8.120;2023-04-07T05:13:59;6.40;99.90
19044;DHT22;9654;52.302;8.120;2023-04-07T05:16:26;6.40;99.90
19044;DHT22;9654;52.302;8.120;2023-04-07T05:18:53;6.40;99.90
19044;DHT22;9654;52.302;8.120;2023-04-07T05:21:19;6.50;99.90
19044;DHT22;9654;52.302;8.120;2023-04-07T05:23:46;6.50;99.90
19044;DHT22;9654;52.302;8.120;2023-04-07T05:26:14;6.50;99.90
19044;DHT22;9654;52.302;8.120;2023-04-07T05:28:41;6.50;99.90
19044;DHT22;9654;52.302;8.120;2023-04-07T05:31:08;6.50;99.90
19044;DHT22;9654;52.302;8.120;2023-04-07T05:33:34;6.60;99.90
19044;DHT22;9654;52.302;8.120;2023-04-07T05:36:01;6.60;99.90
19044;DHT22;9654;52.302;8.120;2023-04-07T05:38:28;6.60;99.90
19044;DHT22;9654;52.302;8.120;2023-04-07T05:40:55;6.60;99.90
19044;DHT22;9654;52.302;8.120;2023-04-07T05:43:23;6.60;99.90
19044;DHT22;9654;52.302;8.120;2023-04-07T05:45:50;6.60;99.90
19044;DHT22;9654;52.302;8.120;2023-04-07T05:48:16;6.60;99.90
19044;DHT22;9654;52.302;8.120;2023-04-07T05:50:43;6.70;99.90
19044;DHT22;9654;52.302;8.120;2023-04-07T05:53:10;6.70;99.90
19044;DHT22;9654;52.302;8.120;2023-04-07T05:55:37;6.70;99.90
19044;DHT22;9654;52.302;8.120;2023-04-07T05:58:04;6.70;99.90
19044;DHT22;9654;52.302;8.120;2023-04-07T06:00:32;6.80;99.90
19044;DHT22;9654;52.302;8.120;2023-04-07T06:02:59;6.80;99.90
19044;DHT22;9654;52.302;8.120;2023-04-07T06:05:26;6.80;99.90
19044;DHT22;9654;52.302;8.120;2023-04-07T06:07:53;6.90;99.90
19044;DHT22;9654;52.302;8.120;2023-04-07T06:10:20;6.90;99.90
19044;DHT22;9654;52.302;8.120;2023-04-07T06:12:46;6.90;99.90
19044;DHT22;9654;52.302;8.120;2023-04-07T06:15:13;6.90;99.90
19044;DHT22;9654;52.302;8.120;2023-04-07T06:17:41;6.90;99.90
19044;DHT22;9654;52.302;8.120;2023-04-07T06:20:10;6.90;99.90
19044;DHT22;9654;52.302;8.120;2023-04-07T06:22:37;6.90;99.90
19044;DHT22;9654;52.302;8.120;2023-04-07T06:25:05;7.00;99.90
19044;DHT22;9654;52.302;8.120;2023-04-07T06:27:32;7.00;99.90
19044;DHT22;9654;52.302;8.120;2023-04-07T06:29:58;7.00;99.90
19044;DHT22;9654;52.302;8.120;2023-04-07T06:32:25;7.00;99.90
19044;DHT22;9654;52.302;8.120;2023-04-07T06:34:54;7.00;99.90
19044;DHT22;9654;52.302;8.120;2023-04-07T06:37:20;7.00;99.90
19044;DHT22;9654;52.302;8.120;2023-04-07T06:39:49;7.00;99.90
19044;DHT22;9654;52.302;8.120;2023-04-07T06:42:16;7.00;99.90
19044;DHT22;9654;52.302;8.120;2023-04-07T06:44:42;7.00;99.90
19044;DHT22;9654;52.302;8.120;2023-04-07T06:47:09;7.00;99.90
19044;DHT22;9654;52.302;8.120;2023-04-07T06:49:36;7.00;99.90
19044;DHT22;9654;52.302;8.120;2023-04-07T06:52:05;7.00;99.90
19044;DHT22;9654;52.302;8.120;2023-04-07T06:54:31;7.10;99.90
19044;DHT22;9654;52.302;8.120;2023-04-07T06:56:58;7.20;99.90
19044;DHT22;9654;52.302;8.120;2023-04-07T06:59:26;7.20;99.90
19044;DHT22;9654;52.302;8.120;2023-04-07T07:01:52;7.30;99.90
19044;DHT22;9654;52.302;8.120;2023-04-07T07:04:19;7.40;99.90
19044;DHT22;9654;52.302;8.120;2023-04-07T07:06:46;7.50;99.90
19044;DHT22;9654;52.302;8.120;2023-04-07T07:09:14;7.50;99.90
19044;DHT22;9654;52.302;8.120;2023-04-07T07:11:41;7.50;99.90
19044;DHT22;9654;52.302;8.120;2023-04-07T07:14:07;7.60;99.90
19044;DHT22;9654;52.302;8.120;2023-04-07T07:16:34;7.60;99.90
19044;DHT22;9654;52.302;8.120;2023-04-07T07:19:01;7.70;99.90
19044;DHT22;9654;52.302;8.120;2023-04-07T07:21:28;7.70;99.90
19044;DHT22;9654;52.302;8.120;2023-04-07T07:23:55;7.80;99.90
19044;DHT22;9654;52.302;8.120;2023-04-07T07:26:24;7.70;99.90
19044;DHT22;9654;52.302;8.120;2023-04-07T07:28:51;7.70;99.90
19044;DHT22;9654;52.302;8.120;2023-04-07T07:31:17;7.70;99.90
19044;DHT22;9654;52.302;8.120;2023-04-07T07:33:44;7.70;99.90
19044;DHT22;9654;52.302;8.120;2023-04-07T07:36:13;7.80;99.90
19044;DHT22;9654;52.302;8.120;2023-04-07T07:38:40;7.90;99.90
19044;DHT22;9654;52.302;8.120;2023-04-07T07:41:07;8.00;99.90
19044;DHT22;9654;52.302;8.120;2023-04-07T07:43:35;8.10;99.90
19044;DHT22;9654;52.302;8.120;2023-04-07T07:46:02;8.10;99.90
19044;DHT22;9654;52.302;8.120;2023-04-07T07:48:29;8.10;99.90
19044;DHT22;9654;52.302;8.120;2023-04-07T07:50:56;8.10;99.90
19044;DHT22;9654;52.302;8.120;2023-04-07T07:53:22;8.00;99.90
19044;DHT22;9654;52.302;8.120;2023-04-07T07:55:49;8.10;99.90
19044;DHT22;9654;52.302;8.120;2023-04-07T07:58:16;8.10;99.90
19044;DHT22;9654;52.302;8.120;2023-04-07T08:00:44;8.10;99.90
19044;DHT22;9654;52.302;8.120;2023-04-07T08:03:11;8.20;99.90
19044;DHT22;9654;52.302;8.120;2023-04-07T08:05:38;8.20;99.90
19044;DHT22;9654;52.302;8.120;2023-04-07T08:08:05;8.20;99.90
19044;DHT22;9654;52.302;8.120;2023-04-07T08:10:32;8.30;99.90
19044;DHT22;9654;52.302;8.120;2023-04-07T08:12:59;8.40;99.90
19044;DHT22;9654;52.302;8.120;2023-04-07T08:15:26;8.40;99.90
19044;DHT22;9654;52.302;8.120;2023-04-07T08:17:54;8.40;99.90
19044;DHT22;9654;52.302;8.120;2023-04-07T08:20:21;8.50;99.90
19044;DHT22;9654;52.302;8.120;2023-04-07T08:22:48;8.50;99.90
19044;DHT22;9654;52.302;8.120;2023-04-07T08:25:15;8.60;99.90
19044;DHT22;9654;52.302;8.120;2023-04-07T08:27:42;8.70;99.90
19044;DHT22;9654;52.302;8.120;2023-04-07T08:30:08;8.80;99.90
19044;DHT22;9654;52.302;8.120;2023-04-07T08:32:36;8.80;99.90
19044;DHT22;9654;52.302;8.120;2023-04-07T08:35:04;8.90;99.90
19044;DHT22;9654;52.302;8.120;2023-04-07T08:37:32;8.80;99.90
19044;DHT22;9654;52.302;8.120;2023-04-07T08:39:59;8.90;99.90
19044;DHT22;9654;52.302;8.120;2023-04-07T08:42:28;8.80;99.90
19044;DHT22;9654;52.302;8.120;2023-04-07T08:44:56;8.90;99.90
19044;DHT22;9654;52.302;8.120;2023-04-07T08:47:24;8.90;99.90
19044;DHT22;9654;52.302;8.120;2023-04-07T08:49:52;8.90;99.90
19044;DHT22;9654;52.302;8.120;2023-04-07T08:52:22;9.00;99.90
19044;DHT22;9654;52.302;8.120;2023-04-07T08:54:54;8.90;99.90
19044;DHT22;9654;52.302;8.120;2023-04-07T08:57:22;8.90;99.90
19044;DHT22;9654;52.302;8.120;2023-04-07T08:59:49;9.00;99.90
19044;DHT22;9654;52.302;8.120;2023-04-07T09:02:17;9.10;99.90
19044;DHT22;9654;52.302;8.120;2023-04-07T09:04:44;9.10;99.90
19044;DHT22;9654;52.302;8.120;2023-04-07T09:07:11;9.10;99.90
19044;DHT22;9654;52.302;8.120;2023-04-07T09:09:39;9.10;99.90
19044;DHT22;9654;52.302;8.120;2023-04-07T09:12:06;9.30;99.90
19044;DHT22;9654;52.302;8.120;2023-04-07T09:14:33;9.40;99.90
19044;DHT22;9654;52.302;8.120;2023-04-07T09:17:00;9.50;99.90
19044;DHT22;9654;52.302;8.120;2023-04-07T09:19:26;9.50;99.90
19044;DHT22;9654;52.302;8.120;2023-04-07T09:21:55;9.50;99.90
19044;DHT22;9654;52.302;8.120;2023-04-07T09:24:23;9.70;99.90
19044;DHT22;9654;52.302;8.120;2023-04-07T09:27:08;9.70;99.90
19044;DHT22;9654;52.302;8.120;2023-04-07T09:29:35;9.80;99.90
19044;DHT22;9654;52.302;8.120;2023-04-07T09:32:02;9.90;99.90
19044;DHT22;9654;52.302;8.120;2023-04-07T09:34:31;10.00;99.90
19044;DHT22;9654;52.302;8.120;2023-04-07T09:36:58;10.00;99.90
19044;DHT22;9654;52.302;8.120;2023-04-07T09:39:26;10.10;99.90
19044;DHT22;9654;52.302;8.120;2023-04-07T09:41:54;10.10;99.90
19044;DHT22;9654;52.302;8.120;2023-04-07T09:44:22;10.20;99.90
19044;DHT22;9654;52.302;8.120;2023-04-07T09:46:50;10.30;99.90
19044;DHT22;9654;52.302;8.120;2023-04-07T09:49:17;10.30;99.90
19044;DHT22;9654;52.302;8.120;2023-04-07T09:51:53;10.30;99.90
19044;DHT22;9654;52.302;8.120;2023-04-07T09:54:34;10.40;99.90
19044;DHT22;9654;52.302;8.120;2023-04-07T09:57:04;10.50;99.90
19044;DHT22;9654;52.302;8.120;2023-04-07T09:59:33;10.50;99.90
19044;DHT22;9654;52.302;8.120;2023-04-07T10:02:00;10.60;99.90
19044;DHT22;9654;52.302;8.120;2023-04-07T10:04:27;10.50;99.90
19044;DHT22;9654;52.302;8.120;2023-04-07T10:06:56;10.40;99.90
19044;DHT22;9654;52.302;8.120;2023-04-07T10:09:25;10.50;99.90
19044;DHT22;9654;52.302;8.120;2023-04-07T10:11:53;10.60;99.90
19044;DHT22;9654;52.302;8.120;2023-04-07T10:14:29;10.60;99.90
19044;DHT22;9654;52.302;8.120;2023-04-07T10:16:56;10.70;99.90
19044;DHT22;9654;52.302;8.120;2023-04-07T10:19:25;10.80;99.90
19044;DHT22;9654;52.302;8.120;2023-04-07T10:21:55;10.90;99.90
19044;DHT22;9654;52.302;8.120;2023-04-07T10:24:36;11.10;99.90
19044;DHT22;9654;52.302;8.120;2023-04-07T10:27:13;11.30;99.90
19044;DHT22;9654;52.302;8.120;2023-04-07T10:29:42;11.40;99.90
19044;DHT22;9654;52.302;8.120;2023-04-07T10:32:10;11.50;99.90
19044;DHT22;9654;52.302;8.120;2023-04-07T10:34:59;11.60;99.90
19044;DHT22;9654;52.302;8.120;2023-04-07T10:37:26;11.80;99.90
19044;DHT22;9654;52.302;8.120;2023-04-07T10:42:59;12.00;99.90
19044;DHT22;9654;52.302;8.120;2023-04-07T10:45:55;12.20;99.90
19044;DHT22;9654;52.302;8.120;2023-04-07T10:48:25;12.30;99.90
19044;DHT22;9654;52.302;8.120;2023-04-07T10:51:12;12.20;99.90
19044;DHT22;9654;52.302;8.120;2023-04-07T10:57:18;11.90;99.90
19044;DHT22;9654;52.302;8.120;2023-04-07T11:00:13;11.80;99.90
19044;DHT22;9654;52.302;8.120;2023-04-07T11:02:41;11.80;99.90
19044;DHT22;9654;52.302;8.120;2023-04-07T11:05:19;12.00;99.90
19044;DHT22;9654;52.302;8.120;2023-04-07T11:07:49;12.40;99.90
19044;DHT22;9654;52.302;8.120;2023-04-07T11:10:16;12.90;99.90
19044;DHT22;9654;52.302;8.120;2023-04-07T11:12:56;13.30;99.90
19044;DHT22;9654;52.302;8.120;2023-04-07T11:15:24;13.50;99.90
19044;DHT22;9654;52.302;8.120;2023-04-07T11:18:09;13.90;99.90
19044;DHT22;9654;52.302;8.120;2023-04-07T11:20:47;14.20;99.90
19044;DHT22;9654;52.302;8.120;2023-04-07T11:23:15;14.40;99.90
19044;DHT22;9654;52.302;8.120;2023-04-07T11:25:44;14.50;99.90
19044;DHT22;9654;52.302;8.120;2023-04-07T11:28:12;14.50;99.90
19044;DHT22;9654;52.302;8.120;2023-04-07T11:30:44;14.30;99.90
19044;DHT22;9654;52.302;8.120;2023-04-07T11:33:15;14.30;99.90
19044;DHT22;9654;52.302;8.120;2023-04-07T11:35:47;14.10;99.90
19044;DHT22;9654;52.302;8.120;2023-04-07T11:38:14;14.10;99.90
19044;DHT22;9654;52.302;8.120;2023-04-07T11:40:42;14.00;99.90
19044;DHT22;9654;52.302;8.120;2023-04-07T11:43:15;14.10;99.90
19044;DHT22;9654;52.302;8.120;2023-04-07T11:45:42;14.10;99.90
19044;DHT22;9654;52.302;8.120;2023-04-07T11:48:25;14.20;99.90
19044;DHT22;9654;52.302;8.120;2023-04-07T11:50:52;14.40;99.90
19044;DHT22;9654;52.302;8.120;2023-04-07T11:53:25;14.30;99.90
19044;DHT22;9654;52.302;8.120;2023-04-07T11:56:03;14.40;99.90
19044;DHT22;9654;52.302;8.120;2023-04-07T11:58:31;14.60;99.90
19044;DHT22;9654;52.302;8.120;2023-04-07T12:01:01;14.60;99.90
19044;DHT22;9654;52.302;8.120;2023-04-07T12:03:35;14.80;99.90
19044;DHT22;9654;52.302;8.120;2023-04-07T12:06:03;14.90;99.90
19044;DHT22;9654;52.302;8.120;2023-04-07T12:08:38;15.00;99.90
19044;DHT22;9654;52.302;8.120;2023-04-07T12:11:06;15.20;99.90
19044;DHT22;9654;52.302;8.120;2023-04-07T12:13:33;15.30;99.90
19044;DHT22;9654;52.302;8.120;2023-04-07T12:16:00;15.40;99.90
19044;DHT22;9654;52.302;8.120;2023-04-07T12:18:28;15.50;99.90
19044;DHT22;9654;52.302;8.120;2023-04-07T12:20:56;15.60;99.90
19044;DHT22;9654;52.302;8.120;2023-04-07T12:23:23;15.70;99.90
19044;DHT22;9654;52.302;8.120;2023-04-07T12:25:50;15.80;99.90
19044;DHT22;9654;52.302;8.120;2023-04-07T12:28:17;15.60;99.90
19044;DHT22;9654;52.302;8.120;2023-04-07T12:30:44;15.00;99.90
19044;DHT22;9654;52.302;8.120;2023-04-07T12:33:11;14.60;99.90
19044;DHT22;9654;52.302;8.120;2023-04-07T12:35:38;14.10;99.90
19044;DHT22;9654;52.302;8.120;2023-04-07T12:38:06;13.80;99.90
19044;DHT22;9654;52.302;8.120;2023-04-07T12:40:33;13.60;99.90
19044;DHT22;9654;52.302;8.120;2023-04-07T12:43:00;13.50;99.90
19044;DHT22;9654;52.302;8.120;2023-04-07T12:45:28;13.30;99.90
19044;DHT22;9654;52.302;8.120;2023-04-07T12:47:55;13.30;99.90
19044;DHT22;9654;52.302;8.120;2023-04-07T12:50:22;13.40;99.90
19044;DHT22;9654;52.302;8.120;2023-04-07T12:52:49;13.40;99.90
19044;DHT22;9654;52.302;8.120;2023-04-07T12:55:20;13.40;99.90
19044;DHT22;9654;52.302;8.120;2023-04-07T12:57:47;13.50;99.90
19044;DHT22;9654;52.302;8.120;2023-04-07T13:00:14;13.60;99.90
19044;DHT22;9654;52.302;8.120;2023-04-07T13:02:41;13.70;99.90
19044;DHT22;9654;52.302;8.120;2023-04-07T13:05:08;13.70;99.90
19044;DHT22;9654;52.302;8.120;2023-04-07T13:07:35;13.60;99.90
19044;DHT22;9654;52.302;8.120;2023-04-07T13:10:03;13.60;99.90
19044;DHT22;9654;52.302;8.120;2023-04-07T13:12:33;13.50;99.90
19044;DHT22;9654;52.302;8.120;2023-04-07T13:14:59;13.60;99.90
19044;DHT22;9654;52.302;8.120;2023-04-07T13:17:27;13.50;99.90
19044;DHT22;9654;52.302;8.120;2023-04-07T13:19:54;13.50;99.90
19044;DHT22;9654;52.302;8.120;2023-04-07T13:22:21;13.50;99.90
19044;DHT22;9654;52.302;8.120;2023-04-07T13:24:48;13.50;99.90
19044;DHT22;9654;52.302;8.120;2023-04-07T13:27:15;13.50;99.90
19044;DHT22;9654;52.302;8.120;2023-04-07T13:29:43;13.70;99.90
19044;DHT22;9654;52.302;8.120;2023-04-07T13:32:10;13.90;99.90
19044;DHT22;9654;52.302;8.120;2023-04-07T13:34:39;14.00;99.90
19044;DHT22;9654;52.302;8.120;2023-04-07T13:37:05;14.20;99.90
19044;DHT22;9654;52.302;8.120;2023-04-07T13:39:33;14.30;99.90
19044;DHT22;9654;52.302;8.120;2023-04-07T13:42:00;14.50;99.90
19044;DHT22;9654;52.302;8.120;2023-04-07T13:44:27;14.40;99.90
19044;DHT22;9654;52.302;8.120;2023-04-07T13:46:56;14.50;99.90
19044;DHT22;9654;52.302;8.120;2023-04-07T13:49:23;14.60;99.90
19044;DHT22;9654;52.302;8.120;2023-04-07T13:51:50;14.80;99.90
19044;DHT22;9654;52.302;8.120;2023-04-07T13:54:17;14.80;99.90
19044;DHT22;9654;52.302;8.120;2023-04-07T13:56:43;14.60;99.90
19044;DHT22;9654;52.302;8.120;2023-04-07T13:59:12;14.40;99.90
19044;DHT22;9654;52.302;8.120;2023-04-07T14:01:39;14.40;99.90
19044;DHT22;9654;52.302;8.120;2023-04-07T14:04:07;14.40;99.90
19044;DHT22;9654;52.302;8.120;2023-04-07T14:06:34;14.10;99.90
19044;DHT22;9654;52.302;8.120;2023-04-07T14:09:02;14.10;99.90
19044;DHT22;9654;52.302;8.120;2023-04-07T14:11:31;14.10;99.90
19044;DHT22;9654;52.302;8.120;2023-04-07T14:13:59;14.20;99.90
19044;DHT22;9654;52.302;8.120;2023-04-07T14:16:25;14.40;99.90
19044;DHT22;9654;52.302;8.120;2023-04-07T14:18:52;14.60;99.90
19044;DHT22;9654;52.302;8.120;2023-04-07T14:21:21;14.90;99.90
19044;DHT22;9654;52.302;8.120;2023-04-07T14:23:48;15.20;99.90
19044;DHT22;9654;52.302;8.120;2023-04-07T14:26:15;15.40;99.90
19044;DHT22;9654;52.302;8.120;2023-04-07T14:28:42;15.50;99.90
19044;DHT22;9654;52.302;8.120;2023-04-07T14:31:11;15.70;99.90
19044;DHT22;9654;52.302;8.120;2023-04-07T14:33:39;15.80;99.90
19044;DHT22;9654;52.302;8.120;2023-04-07T14:36:05;15.90;99.90
19044;DHT22;9654;52.302;8.120;2023-04-07T14:38:34;16.10;99.90
19044;DHT22;9654;52.302;8.120;2023-04-07T14:41:01;16.30;99.90
19044;DHT22;9654;52.302;8.120;2023-04-07T14:43:28;16.40;99.90
19044;DHT22;9654;52.302;8.120;2023-04-07T14:45:54;16.70;99.90
19044;DHT22;9654;52.302;8.120;2023-04-07T14:48:22;16.90;99.90
19044;DHT22;9654;52.302;8.120;2023-04-07T14:50:48;17.10;99.90
19044;DHT22;9654;52.302;8.120;2023-04-07T14:53:15;17.40;99.90
19044;DHT22;9654;52.302;8.120;2023-04-07T14:55:43;17.60;99.90
19044;DHT22;9654;52.302;8.120;2023-04-07T14:58:10;17.50;99.90
19044;DHT22;9654;52.302;8.120;2023-04-07T15:00:37;17.30;99.90
19044;DHT22;9654;52.302;8.120;2023-04-07T15:03:04;16.80;99.90
19044;DHT22;9654;52.302;8.120;2023-04-07T15:05:31;16.40;99.90
19044;DHT22;9654;52.302;8.120;2023-04-07T15:07:58;16.20;99.90
19044;DHT22;9654;52.302;8.120;2023-04-07T15:10:25;15.60;99.90
19044;DHT22;9654;52.302;8.120;2023-04-07T15:12:53;15.30;99.90
19044;DHT22;9654;52.302;8.120;2023-04-07T15:15:20;15.20;99.90
19044;DHT22;9654;52.302;8.120;2023-04-07T15:17:46;15.10;99.90
19044;DHT22;9654;52.302;8.120;2023-04-07T15:20:13;15.10;99.90
19044;DHT22;9654;52.302;8.120;2023-04-07T15:22:40;15.00;99.90
19044;DHT22;9654;52.302;8.120;2023-04-07T15:25:07;14.90;99.90
19044;DHT22;9654;52.302;8.120;2023-04-07T15:27:34;14.80;99.90
19044;DHT22;9654;52.302;8.120;2023-04-07T15:30:02;14.60;99.80
19044;DHT22;9654;52.302;8.120;2023-04-07T15:32:29;14.60;99.90
19044;DHT22;9654;52.302;8.120;2023-04-07T15:34:56;14.50;99.90
19044;DHT22;9654;52.302;8.120;2023-04-07T15:37:23;14.50;99.90
19044;DHT22;9654;52.302;8.120;2023-04-07T15:39:50;14.40;99.90
19044;DHT22;9654;52.302;8.120;2023-04-07T15:42:17;14.30;99.90
19044;DHT22;9654;52.302;8.120;2023-04-07T15:44:44;14.20;99.90
19044;DHT22;9654;52.302;8.120;2023-04-07T15:47:12;14.20;99.90
19044;DHT22;9654;52.302;8.120;2023-04-07T15:49:38;14.20;99.90
19044;DHT22;9654;52.302;8.120;2023-04-07T15:52:06;14.20;99.90
19044;DHT22;9654;52.302;8.120;2023-04-07T15:54:33;14.30;99.80
19044;DHT22;9654;52.302;8.120;2023-04-07T15:57:00;14.50;99.90
19044;DHT22;9654;52.302;8.120;2023-04-07T15:59:27;14.60;99.60
19044;DHT22;9654;52.302;8.120;2023-04-07T16:01:55;14.60;98.50
19044;DHT22;9654;52.302;8.120;2023-04-07T16:04:23;14.50;98.20
19044;DHT22;9654;52.302;8.120;2023-04-07T16:06:50;14.40;98.00